Time;durP1;ratioP1;P1;durP2;ratioP2;P2;SDS_P1;SDS_P2;PMS_P1;PMS_P2;Temp;Humidity;BMP_temperature;BMP_pressure;BME280_temperature;BME280_humidity;BME280_pressure;Samples;Min_cycle;Max_cycle;Signal;HPM_P1;HPM_P2
2024/01/27 00:00:46;;;;;;;0.20;0.20;;;;;;;4.52;70.61;95055.13;5051332;28;20207;-72
2024/01/27 00:03:13;;;;;;;0.20;0.20;;;;;;;4.46;70.83;95048.22;5050665;28;20226;-75
2024/01/27 00:05:39;;;;;;;0.25;0.25;;;;;;;4.42;70.47;95033.75;5050893;28;20257;-73
2024/01/27 00:08:08;;;;;;;0.75;0.75;;;;;;;4.67;70.12;95033.56;5050732;28;20204;-76
2024/01/27 00:10:35;;;;;;;0.20;0.20;;;;;;;4.65;69.32;95033.03;5049724;28;20609;-74
2024/01/27 00:13:03;;;;;;;0.30;0.30;;;;;;;4.63;69.43;95040.59;5050437;28;20588;-73
2024/01/27 00:15:29;;;;;;;0.20;0.20;;;;;;;4.65;68.64;95043.75;5050945;28;20625;-73
2024/01/27 00:17:56;;;;;;;0.20;0.20;;;;;;;4.58;69.03;95038.72;5050927;28;20528;-74
2024/01/27 00:20:23;;;;;;;0.30;0.30;;;;;;;4.68;68.69;95029.78;5050198;28;20207;-74
2024/01/27 00:22:50;;;;;;;0.30;0.30;;;;;;;4.69;69.38;95015.31;5050449;28;20238;-73
2024/01/27 00:25:17;;;;;;;0.20;0.20;;;;;;;4.70;68.43;95027.63;5049920;28;20212;-74
2024/01/27 00:27:43;;;;;;;0.20;0.20;;;;;;;4.55;68.51;95022.38;5050744;28;20211;-75
2024/01/27 00:30:12;;;;;;;0.20;0.20;;;;;;;4.64;68.53;95031.47;5050762;28;20671;-74
2024/01/27 00:32:39;;;;;;;0.20;0.20;;;;;;;4.62;67.78;95034.41;5050395;28;20306;-74
2024/01/27 00:35:06;;;;;;;0.30;0.30;;;;;;;4.53;68.02;95025.34;5050684;28;20207;-73
2024/01/27 00:37:33;;;;;;;0.30;0.30;;;;;;;4.55;68.19;95033.13;5047188;28;20266;-75
2024/01/27 00:40:00;;;;;;;0.20;0.20;;;;;;;4.55;68.44;95022.38;5039686;28;20676;-75
2024/01/27 00:42:27;;;;;;;0.20;0.20;;;;;;;4.53;68.30;95019.97;5053816;28;20250;-75
2024/01/27 00:44:53;;;;;;;0.20;0.20;;;;;;;4.54;68.05;95021.59;5053036;28;20208;-75
2024/01/27 00:47:22;;;;;;;0.20;0.20;;;;;;;4.70;67.35;95024.94;5054157;28;20215;-75
2024/01/27 00:49:48;;;;;;;0.20;0.20;;;;;;;4.66;67.61;95029.28;5054031;28;20216;-74
2024/01/27 00:52:15;;;;;;;0.20;0.20;;;;;;;4.56;67.30;95024.00;5053119;28;20571;-75
2024/01/27 00:54:42;;;;;;;0.20;0.20;;;;;;;4.73;66.55;95029.78;5033922;28;20216;-74
2024/01/27 00:57:09;;;;;;;0.20;0.20;;;;;;;4.74;66.62;95023.31;5048452;28;20598;-75
2024/01/27 00:59:35;;;;;;;2.90;0.32;;;;;;;4.82;66.54;95021.91;5054164;28;20238;-75
2024/01/27 01:02:02;;;;;;;0.20;0.20;;;;;;;4.88;65.79;95020.78;5054324;28;20219;-75
2024/01/27 01:04:30;;;;;;;0.40;0.40;;;;;;;4.81;66.92;95021.09;5054688;28;20549;-76
2024/01/27 01:06:57;;;;;;;0.32;0.32;;;;;;;4.78;66.97;95010.16;5053220;28;20204;-75
2024/01/27 01:09:24;;;;;;;0.25;0.25;;;;;;;4.83;67.47;95012.78;5054231;28;20258;-76
2024/01/27 01:11:51;;;;;;;0.20;0.20;;;;;;;4.82;67.25;95006.59;5053939;28;20247;-75
2024/01/27 01:14:18;;;;;;;0.40;0.40;;;;;;;4.82;67.24;95014.66;5053784;28;20310;-75
2024/01/27 01:16:46;;;;;;;0.20;0.20;;;;;;;4.82;68.07;95017.34;5053635;28;20208;-76
2024/01/27 01:19:13;;;;;;;0.20;0.20;;;;;;;4.70;68.66;95019.59;5053874;28;20231;-74
2024/01/27 01:21:41;;;;;;;0.20;0.20;;;;;;;4.70;69.43;95029.53;5050761;28;20211;-75
2024/01/27 01:24:11;;;;;;;0.70;0.70;;;;;;;4.74;69.65;95025.19;5043045;28;20211;-76
2024/01/27 01:26:39;;;;;;;0.20;0.20;;;;;;;4.59;70.67;95018.06;5054091;28;20229;-75
2024/01/27 01:29:05;;;;;;;0.20;0.20;;;;;;;4.54;70.97;95020.78;5053985;28;20576;-75
2024/01/27 01:31:32;;;;;;;0.20;0.20;;;;;;;4.61;70.52;95018.59;5053367;28;20215;-75
2024/01/27 01:34:01;;;;;;;0.20;0.20;;;;;;;4.72;70.12;95012.06;5053378;28;20227;-74
2024/01/27 01:36:29;;;;;;;0.30;0.30;;;;;;;4.61;70.00;95003.31;5053492;28;20208;-74
2024/01/27 01:38:57;;;;;;;0.35;0.35;;;;;;;4.65;69.59;95006.19;5038214;28;20235;-75
2024/01/27 01:41:24;;;;;;;0.17;0.17;;;;;;;4.71;68.73;95010.47;5052354;28;20217;-75
2024/01/27 01:43:51;;;;;;;0.20;0.20;;;;;;;4.78;67.61;95010.94;5053410;28;20231;-75
2024/01/27 01:46:18;;;;;;;0.20;0.20;;;;;;;4.72;68.58;95005.91;5052556;28;20652;-73
2024/01/27 01:48:45;;;;;;;0.20;0.20;;;;;;;4.73;68.90;95002.94;5052974;28;20261;-74
2024/01/27 01:51:13;;;;;;;0.30;0.30;;;;;;;4.62;68.56;94990.69;5051782;28;20630;-74
2024/01/27 01:53:40;;;;;;;0.20;0.20;;;;;;;4.59;68.73;94988.56;5052698;28;20211;-75
2024/01/27 01:56:09;;;;;;;0.85;0.85;;;;;;;4.63;68.38;94997.66;5053279;28;20212;-75
2024/01/27 01:58:36;;;;;;;0.20;0.20;;;;;;;4.59;68.93;94993.94;5052891;28;20303;-75
2024/01/27 02:01:03;;;;;;;0.20;0.20;;;;;;;4.55;68.83;94984.84;5052050;28;20223;-75
2024/01/27 02:03:30;;;;;;;0.20;0.20;;;;;;;4.54;68.81;94997.44;5040228;28;20255;-73
2024/01/27 02:05:57;;;;;;;0.20;0.20;;;;;;;4.82;67.28;94982.44;5026694;28;20219;-75
2024/01/27 02:08:24;;;;;;;0.20;0.20;;;;;;;4.74;66.25;94982.28;5053021;28;20211;-75
2024/01/27 02:10:51;;;;;;;0.20;0.20;;;;;;;4.80;66.05;94987.28;5052649;28;21002;-75
2024/01/27 02:13:21;;;;;;;0.40;0.40;;;;;;;5.00;62.61;94962.97;5052787;28;20211;-73
2024/01/27 02:15:51;;;;;;;0.40;0.38;;;;;;;5.32;57.68;94950.81;5052873;28;20207;-75
2024/01/27 02:18:19;;;;;;;0.22;0.22;;;;;;;5.54;56.20;94947.59;5051901;28;20729;-74
2024/01/27 02:20:46;;;;;;;0.40;0.40;;;;;;;5.63;55.33;94946.66;5052855;28;20242;-75
2024/01/27 02:23:13;;;;;;;0.20;0.20;;;;;;;5.75;54.35;94948.91;5052692;28;20220;-76
2024/01/27 02:25:41;;;;;;;0.20;0.20;;;;;;;5.85;54.58;94958.75;5052586;28;20218;-76
2024/01/27 02:28:08;;;;;;;0.20;0.20;;;;;;;5.79;55.42;94962.56;5052731;28;20235;-75
2024/01/27 02:30:35;;;;;;;0.20;0.20;;;;;;;5.64;55.24;94942.06;5051612;28;20261;-73
2024/01/27 02:33:02;;;;;;;0.63;0.63;;;;;;;5.78;55.73;94959.09;5052608;28;20228;-74
2024/01/27 02:35:28;;;;;;;1.02;1.02;;;;;;;5.83;54.62;94956.34;5052676;28;20595;-73
2024/01/27 02:37:55;;;;;;;0.25;0.25;;;;;;;5.68;55.00;94935.84;5045011;28;20208;-73
2024/01/27 02:40:22;;;;;;;0.20;0.20;;;;;;;5.96;53.53;94949.47;5042052;28;20243;-74
2024/01/27 02:42:50;;;;;;;0.20;0.20;;;;;;;5.97;53.29;94953.78;5052009;28;20207;-73
2024/01/27 02:45:17;;;;;;;0.30;0.30;;;;;;;6.00;53.11;94962.06;5051913;28;20563;-74
2024/01/27 02:47:44;;;;;;;0.20;0.20;;;;;;;5.98;51.51;94955.38;5051873;28;20215;-74
2024/01/27 02:50:11;;;;;;;0.30;0.30;;;;;;;6.06;52.27;94944.75;5052195;28;20591;-73
2024/01/27 02:52:38;;;;;;;0.20;0.20;;;;;;;6.13;50.96;94949.78;5051748;28;20215;-72
2024/01/27 02:55:05;;;;;;;0.40;0.40;;;;;;;6.15;50.85;94947.56;5051949;28;20584;-72
2024/01/27 02:57:32;;;;;;;0.20;0.20;;;;;;;6.16;50.33;94946.47;5051778;28;20549;-74
2024/01/27 03:00:00;;;;;;;0.20;0.20;;;;;;;6.39;51.14;94952.88;5052361;28;20564;-72
2024/01/27 03:02:26;;;;;;;0.30;0.30;;;;;;;6.21;51.06;94946.41;5052019;28;20579;-72
2024/01/27 03:04:53;;;;;;;1.98;0.47;;;;;;;6.07;52.19;94957.09;5051837;28;20277;-73
2024/01/27 03:07:20;;;;;;;0.20;0.20;;;;;;;6.05;53.53;94963.84;5032359;28;20220;-71
2024/01/27 03:09:47;;;;;;;0.30;0.30;;;;;;;6.06;54.74;94970.84;5043528;28;20203;-72
2024/01/27 03:12:15;;;;;;;0.25;0.25;;;;;;;6.24;56.70;94969.25;5051384;28;20646;-72
2024/01/27 03:14:42;;;;;;;0.20;0.20;;;;;;;6.18;57.24;94973.88;5052155;28;20219;-70
2024/01/27 03:17:10;;;;;;;0.70;0.70;;;;;;;6.13;58.02;94965.13;5051385;28;20212;-71
2024/01/27 03:19:37;;;;;;;0.20;0.20;;;;;;;6.06;59.20;94970.84;5051297;28;20269;-71
2024/01/27 03:22:04;;;;;;;0.22;0.22;;;;;;;5.99;61.39;94973.09;5050851;28;20211;-72
2024/01/27 03:24:31;;;;;;;0.63;0.63;;;;;;;5.98;63.34;94953.47;5051566;28;20632;-73
2024/01/27 03:26:57;;;;;;;0.30;0.30;;;;;;;6.04;63.23;94967.63;5050593;28;20215;-71
2024/01/27 03:29:24;;;;;;;0.20;0.20;;;;;;;5.97;65.78;94956.47;5051677;28;20533;-72
2024/01/27 03:31:51;;;;;;;0.20;0.20;;;;;;;5.97;67.26;94957.25;5051929;28;20651;-71
2024/01/27 03:34:20;;;;;;;0.20;0.20;;;;;;;5.93;68.65;94961.59;5050549;28;20239;-72
2024/01/27 03:36:49;;;;;;;0.20;0.20;;;;;;;5.87;69.58;94961.94;5051259;28;20264;-72
2024/01/27 03:39:15;;;;;;;0.20;0.20;;;;;;;5.65;71.83;94952.53;5033835;28;20627;-72
2024/01/27 03:41:42;;;;;;;0.45;0.45;;;;;;;5.77;71.45;94941.34;5051610;28;20603;-72
2024/01/27 03:44:09;;;;;;;0.20;0.20;;;;;;;5.70;72.95;94949.78;5051231;28;20659;-73
2024/01/27 03:46:37;;;;;;;0.20;0.20;;;;;;;5.90;73.70;94945.25;5051642;28;20587;-74
2024/01/27 03:49:04;;;;;;;0.20;0.20;;;;;;;5.69;76.45;94945.50;5051378;28;20211;-75
2024/01/27 03:51:32;;;;;;;0.30;0.30;;;;;;;5.78;78.61;94944.84;5050665;28;20230;-73
2024/01/27 03:53:59;;;;;;;0.30;0.30;;;;;;;5.57;79.88;94937.06;5036205;28;20306;-74
2024/01/27 03:56:26;;;;;;;0.20;0.20;;;;;;;5.62;80.51;94936.97;5039505;28;20215;-75
2024/01/27 03:58:53;;;;;;;0.20;0.20;;;;;;;5.45;80.88;94934.00;5050680;28;20211;-73
2024/01/27 04:01:19;;;;;;;0.30;0.30;;;;;;;5.16;81.63;94934.06;5051605;28;20235;-72
2024/01/27 04:03:46;;;;;;;0.20;0.20;;;;;;;5.23;82.11;94931.03;5051258;28;20579;-73
2024/01/27 04:06:13;;;;;;;0.20;0.20;;;;;;;5.26;82.69;94943.88;5051057;28;20203;-72
2024/01/27 04:08:43;;;;;;;0.20;0.20;;;;;;;5.13;82.82;94939.19;5051319;28;20211;-75
2024/01/27 04:11:10;;;;;;;0.40;0.40;;;;;;;4.88;83.71;94938.38;5050429;28;20231;-73
2024/01/27 04:13:37;;;;;;;0.10;0.10;;;;;;;4.98;83.73;94945.53;5051536;28;20626;-73
2024/01/27 04:16:04;;;;;;;0.20;0.20;;;;;;;4.90;84.03;94933.53;5055286;28;20679;-73
2024/01/27 04:18:31;;;;;;;0.30;0.30;;;;;;;4.91;84.17;94945.88;5055109;28;20207;-75
2024/01/27 04:20:58;;;;;;;0.40;0.40;;;;;;;4.93;84.40;94932.16;5055039;28;20234;-74
2024/01/27 04:23:24;;;;;;;0.68;0.68;;;;;;;4.94;84.65;94931.06;5054364;28;20215;-73
2024/01/27 04:25:52;;;;;;;0.20;0.20;;;;;;;4.96;84.58;94927.03;5055008;28;20219;-74
2024/01/27 04:28:19;;;;;;;0.20;0.20;;;;;;;4.92;85.13;94942.09;5054676;28;20682;-74
2024/01/27 04:30:46;;;;;;;0.20;0.20;;;;;;;4.95;84.95;94936.16;5055323;28;20617;-74
2024/01/27 04:33:13;;;;;;;0.20;0.20;;;;;;;5.07;84.92;94940.31;5054861;28;20227;-75
2024/01/27 04:35:39;;;;;;;5.45;1.23;;;;;;;5.07;85.00;94938.44;5055120;28;20269;-75
2024/01/27 04:38:08;;;;;;;0.20;0.20;;;;;;;5.08;85.45;94934.69;5046652;28;20208;-74
2024/01/27 04:40:35;;;;;;;0.20;0.20;;;;;;;5.16;85.71;94946.69;5046378;28;20246;-74
2024/01/27 04:43:04;;;;;;;0.20;0.20;;;;;;;5.12;85.81;94945.66;5053908;28;20296;-73
2024/01/27 04:45:30;;;;;;;0.20;0.20;;;;;;;5.25;85.69;94942.28;5054430;28;20291;-71
2024/01/27 04:47:57;;;;;;;0.20;0.20;;;;;;;5.23;85.61;94929.13;5054501;28;20254;-72
2024/01/27 04:50:24;;;;;;;0.20;0.20;;;;;;;5.38;86.11;94944.28;5054349;28;20211;-73
2024/01/27 04:52:51;;;;;;;0.20;0.20;;;;;;;5.38;86.29;94928.16;5047947;28;20216;-73
2024/01/27 04:55:17;;;;;;;0.20;0.20;;;;;;;5.40;86.49;94939.41;5037348;28;20227;-72
2024/01/27 04:57:44;;;;;;;0.35;0.35;;;;;;;5.50;86.64;94939.28;5043014;28;20196;-72
2024/01/27 05:00:14;;;;;;;0.20;0.20;;;;;;;5.42;87.10;94934.56;5045895;28;20266;-74
2024/01/27 05:02:41;;;;;;;0.20;0.20;;;;;;;5.39;87.75;94947.75;5040402;28;20211;-73
2024/01/27 05:05:08;;;;;;;0.20;0.20;;;;;;;5.29;88.86;94948.69;5045418;28;20265;-73
2024/01/27 05:07:35;;;;;;;0.20;0.20;;;;;;;5.40;88.20;94958.22;5044279;28;20654;-73
2024/01/27 05:10:02;;;;;;;0.20;0.20;;;;;;;5.26;89.00;94963.47;5044472;28;20596;-70
2024/01/27 05:12:29;;;;;;;0.20;0.20;;;;;;;5.32;89.48;94956.19;5043978;28;20274;-73
2024/01/27 05:14:55;;;;;;;0.30;0.30;;;;;;;5.28;89.95;94960.50;5046140;28;20671;-72
2024/01/27 05:17:24;;;;;;;0.20;0.20;;;;;;;5.30;90.54;94959.16;5044197;28;20645;-73
2024/01/27 05:19:51;;;;;;;0.20;0.20;;;;;;;5.30;90.46;94964.53;5045201;28;20228;-72
2024/01/27 05:22:17;;;;;;;0.20;0.20;;;;;;;5.25;91.75;94956.50;5045954;28;20231;-73
2024/01/27 05:24:44;;;;;;;0.25;0.25;;;;;;;5.28;91.68;94955.94;5042168;28;20557;-75
2024/01/27 05:27:11;;;;;;;0.57;0.52;;;;;;;5.29;92.97;94962.13;5042957;28;20199;-74
2024/01/27 05:29:38;;;;;;;0.20;0.20;;;;;;;5.21;93.46;94960.03;5044013;28;20211;-74
2024/01/27 05:32:05;;;;;;;0.40;0.35;;;;;;;5.07;93.91;94954.56;5043482;28;20200;-72
2024/01/27 05:34:33;;;;;;;0.20;0.20;;;;;;;5.12;94.68;94951.03;5044006;28;20219;-73
2024/01/27 05:37:00;;;;;;;0.25;0.25;;;;;;;5.06;95.47;94952.94;5044241;28;20201;-75
2024/01/27 05:39:29;;;;;;;2.38;0.85;;;;;;;5.09;94.85;94962.31;5044367;28;20258;-75
2024/01/27 05:41:55;;;;;;;0.20;0.20;;;;;;;5.09;94.98;94967.69;5040958;28;20547;-74
2024/01/27 05:44:22;;;;;;;0.20;0.20;;;;;;;5.16;95.31;94968.16;5041962;28;20204;-74
2024/01/27 05:46:49;;;;;;;0.22;0.22;;;;;;;5.10;95.54;94969.28;5041758;28;20211;-73
2024/01/27 05:49:16;;;;;;;0.52;0.52;;;;;;;4.92;95.93;94966.25;5046349;28;20210;-74
2024/01/27 05:51:44;;;;;;;0.43;0.43;;;;;;;5.02;96.53;94977.97;5042927;28;20196;-76
2024/01/27 05:54:13;;;;;;;0.20;0.20;;;;;;;4.77;97.49;94976.34;5044354;28;20609;-74
2024/01/27 05:56:40;;;;;;;0.45;0.45;;;;;;;4.67;98.63;94979.91;5042891;28;20200;-72
2024/01/27 05:59:07;;;;;;;0.28;0.28;;;;;;;4.70;99.66;94982.03;5042709;28;20567;-75
2024/01/27 06:01:34;;;;;;;0.20;0.20;;;;;;;4.66;100.00;94986.34;5043897;28;20277;-76
2024/01/27 06:04:01;;;;;;;0.35;0.35;;;;;;;4.73;100.00;94989.53;5044706;28;20204;-75
2024/01/27 06:06:27;;;;;;;0.10;0.10;;;;;;;4.68;100.00;94984.19;5042783;28;20204;-76
2024/01/27 06:08:56;;;;;;;0.30;0.30;;;;;;;4.55;100.00;94984.84;5044627;28;20263;-76
2024/01/27 06:11:25;;;;;;;0.20;0.20;;;;;;;4.71;100.00;95002.41;5039151;28;20251;-75
2024/01/27 06:13:52;;;;;;;0.20;0.20;;;;;;;4.90;100.00;94997.16;5043075;28;20216;-76
2024/01/27 06:16:19;;;;;;;1.85;0.82;;;;;;;4.87;99.64;95003.88;5043970;28;20199;-74
2024/01/27 06:18:46;;;;;;;0.20;0.20;;;;;;;4.95;99.41;95005.94;5043490;28;20287;-73
2024/01/27 06:21:13;;;;;;;0.20;0.20;;;;;;;4.85;99.81;95006.03;5041871;28;20215;-74
2024/01/27 06:23:40;;;;;;;0.20;0.20;;;;;;;4.89;100.00;95015.16;5043110;28;20198;-73
2024/01/27 06:26:09;;;;;;;0.20;0.20;;;;;;;5.05;99.94;95010.44;5042127;28;20212;-72
2024/01/27 06:28:36;;;;;;;0.20;0.20;;;;;;;5.03;99.73;95001.06;5042184;28;20618;-72
2024/01/27 06:31:03;;;;;;;0.45;0.45;;;;;;;5.21;98.34;95011.06;5043834;28;20509;-74
2024/01/27 06:33:30;;;;;;;0.30;0.30;;;;;;;5.36;97.06;95021.66;5041952;28;20255;-75
2024/01/27 06:35:57;;;;;;;1.35;0.38;;;;;;;5.37;97.17;95020.56;5042683;28;20204;-73
2024/01/27 06:38:24;;;;;;;0.20;0.20;;;;;;;5.53;95.66;95030.06;5042379;28;20207;-73
2024/01/27 06:40:50;;;;;;;0.20;0.20;;;;;;;5.68;94.19;95035.28;5041642;28;20322;-74
2024/01/27 06:43:18;;;;;;;0.30;0.30;;;;;;;5.90;92.87;95047.41;5042214;28;20203;-73
2024/01/27 06:45:45;;;;;;;0.20;0.20;;;;;;;5.98;91.77;95044.91;5038507;28;20204;-72
2024/01/27 06:48:12;;;;;;;0.20;0.20;;;;;;;5.97;90.55;95037.91;5043605;28;20703;-72
2024/01/27 06:50:39;;;;;;;0.20;0.20;;;;;;;6.03;90.82;95041.31;5041505;28;20242;-73
2024/01/27 06:53:05;;;;;;;0.25;0.25;;;;;;;6.18;89.94;95049.19;5038643;28;20200;-73
2024/01/27 06:55:32;;;;;;;0.20;0.20;;;;;;;6.12;88.95;95047.69;5039861;28;20212;-73
2024/01/27 06:57:59;;;;;;;0.20;0.20;;;;;;;6.05;89.39;95058.78;5035259;28;20578;-74
2024/01/27 07:00:27;;;;;;;0.20;0.20;;;;;;;6.09;87.93;95071.66;5033597;28;20244;-73
2024/01/27 07:02:55;;;;;;;0.40;0.40;;;;;;;6.11;88.13;95067.59;5035406;28;20223;-75
2024/01/27 07:05:22;;;;;;;0.20;0.20;;;;;;;6.16;87.33;95048.69;5031951;28;20219;-73
2024/01/27 07:07:49;;;;;;;0.20;0.20;;;;;;;6.29;86.31;95033.72;5031714;28;20208;-73
2024/01/27 07:10:16;;;;;;;0.20;0.20;;;;;;;6.44;85.97;95046.97;5031686;28;20208;-73
2024/01/27 07:12:43;;;;;;;0.20;0.20;;;;;;;6.37;85.39;95036.56;5031558;28;20548;-73
2024/01/27 07:15:10;;;;;;;0.20;0.20;;;;;;;6.51;84.98;95036.66;5033174;28;20481;-73
2024/01/27 07:17:39;;;;;;;0.20;0.20;;;;;;;6.40;84.62;95051.34;5030999;28;21413;-72
2024/01/27 07:20:08;;;;;;;0.20;0.20;;;;;;;6.46;84.56;95043.97;5031140;28;20207;-76
2024/01/27 07:22:34;;;;;;;1.17;0.40;;;;;;;6.21;84.30;95037.88;5028105;28;20681;-75
2024/01/27 07:25:01;;;;;;;0.88;0.88;;;;;;;6.30;84.13;95041.50;5031613;28;20222;-74
2024/01/27 07:27:28;;;;;;;0.20;0.20;;;;;;;6.33;83.42;95043.63;5030907;28;20200;-73
2024/01/27 07:29:55;;;;;;;0.20;0.20;;;;;;;6.26;83.97;95056.66;5031346;28;20219;-75
2024/01/27 07:32:22;;;;;;;0.20;0.20;;;;;;;6.20;83.44;95052.41;5031053;28;20193;-74
2024/01/27 07:34:50;;;;;;;0.20;0.20;;;;;;;6.34;82.66;95058.69;5032323;28;20218;-74
2024/01/27 07:37:17;;;;;;;0.20;0.20;;;;;;;6.14;82.51;95085.06;5029886;28;20677;-75
2024/01/27 07:39:43;;;;;;;0.20;0.20;;;;;;;6.07;82.03;95106.91;5030492;28;20205;-75
2024/01/27 07:42:10;;;;;;;5.53;0.40;;;;;;;5.94;82.02;95118.34;5030159;28;20243;-72
2024/01/27 07:44:37;;;;;;;0.35;0.35;;;;;;;5.94;80.87;95123.72;5031182;28;20619;-74
2024/01/27 07:47:04;;;;;;;0.20;0.20;;;;;;;5.83;81.30;95138.34;5031627;28;20250;-74
2024/01/27 07:49:31;;;;;;;0.80;0.50;;;;;;;5.74;80.25;95134.69;5027359;28;20657;-74
2024/01/27 07:51:59;;;;;;;0.30;0.30;;;;;;;5.82;80.72;95136.72;5025334;28;20200;-74
2024/01/27 07:54:26;;;;;;;0.20;0.20;;;;;;;5.83;81.38;95116.84;5030374;28;20278;-75
2024/01/27 07:56:53;;;;;;;0.52;0.30;;;;;;;5.83;78.85;95109.56;5029930;28;20657;-75
2024/01/27 07:59:20;;;;;;;0.20;0.20;;;;;;;5.92;78.49;95125.91;5028944;28;20649;-74
2024/01/27 08:01:47;;;;;;;0.20;0.20;;;;;;;5.82;79.58;95123.28;5029166;28;20711;-73
2024/01/27 08:04:15;;;;;;;4.22;1.27;;;;;;;5.70;79.57;95124.50;5030075;28;20223;-72
2024/01/27 08:06:49;;;;;;;0.30;0.30;;;;;;;5.86;80.24;95121.66;5032031;28;20204;-74
2024/01/27 08:09:18;;;;;;;0.40;0.40;;;;;;;5.80;80.16;95152.34;5030007;28;20556;-74
2024/01/27 08:11:45;;;;;;;0.63;0.63;;;;;;;5.63;79.92;95144.72;5027789;28;20239;-75
2024/01/27 08:14:12;;;;;;;0.40;0.40;;;;;;;5.76;79.95;95149.41;5029659;28;20299;-73
2024/01/27 08:16:39;;;;;;;1.55;0.50;;;;;;;5.80;79.67;95138.91;5029824;28;20208;-71
2024/01/27 08:19:05;;;;;;;0.20;0.20;;;;;;;5.90;79.68;95131.56;5029935;28;20200;-74
2024/01/27 08:21:32;;;;;;;0.35;0.25;;;;;;;6.01;78.24;95118.81;5033241;28;20314;-72
2024/01/27 08:23:59;;;;;;;0.30;0.30;;;;;;;6.13;77.12;95135.34;5027901;28;20440;-74
2024/01/27 08:26:27;;;;;;;0.20;0.20;;;;;;;6.39;76.44;95147.41;5031210;28;20208;-73
2024/01/27 08:28:56;;;;;;;8.73;0.80;;;;;;;6.29;76.47;95117.91;5030564;28;20208;-73
2024/01/27 08:31:23;;;;;;;0.20;0.20;;;;;;;6.36;74.82;95109.50;5030156;28;20200;-74
2024/01/27 08:33:52;;;;;;;0.40;0.40;;;;;;;6.27;74.53;95128.19;5028439;28;20240;-74
2024/01/27 08:36:27;;;;;;;0.30;0.30;;;;;;;6.21;75.16;95118.56;5029570;28;20206;-74
2024/01/27 08:38:54;;;;;;;0.47;0.47;;;;;;;6.28;74.66;95113.66;5030108;28;20207;-73
2024/01/27 08:41:21;;;;;;;0.20;0.20;;;;;;;6.33;74.35;95120.84;5030449;28;20228;-75
2024/01/27 08:43:50;;;;;;;0.73;0.68;;;;;;;6.41;74.57;95134.47;5031286;28;20635;-72
2024/01/27 08:46:19;;;;;;;0.73;0.73;;;;;;;6.46;74.37;95103.19;5030696;28;20208;-75
2024/01/27 08:48:46;;;;;;;0.47;0.47;;;;;;;6.36;74.02;95110.31;5027448;28;20259;-74
2024/01/27 08:51:13;;;;;;;0.30;0.30;;;;;;;6.71;74.24;95105.53;5028483;28;20201;-76
2024/01/27 08:53:40;;;;;;;0.43;0.43;;;;;;;6.35;73.55;95075.63;5030308;28;20639;-76
2024/01/27 08:56:07;;;;;;;0.43;0.43;;;;;;;6.40;74.33;95089.00;5036400;28;20204;-74
2024/01/27 08:58:34;;;;;;;0.17;0.17;;;;;;;6.57;74.46;95078.53;5036911;28;20207;-75
2024/01/27 09:01:05;;;;;;;0.70;0.70;;;;;;;6.38;74.79;95094.69;5033050;28;20236;-75
2024/01/27 09:03:32;;;;;;;0.20;0.20;;;;;;;6.62;74.24;95091.94;5039009;28;20200;-76
2024/01/27 09:05:58;;;;;;;2.17;0.93;;;;;;;6.62;72.52;95064.22;5030702;28;20204;-75
2024/01/27 09:08:25;;;;;;;0.40;0.40;;;;;;;6.84;72.21;95066.28;5050277;28;20211;-76
2024/01/27 09:10:52;;;;;;;0.45;0.45;;;;;;;6.91;71.01;95034.41;5045144;28;20603;-78
2024/01/27 09:13:19;;;;;;;0.20;0.20;;;;;;;6.91;71.95;95062.16;5038491;28;20231;-75
2024/01/27 09:15:45;;;;;;;0.60;0.60;;;;;;;6.91;71.14;95051.38;5043329;28;20585;-77
2024/01/27 09:18:14;;;;;;;2.47;1.13;;;;;;;6.40;72.23;95046.75;5035818;28;20215;-72
2024/01/27 09:20:42;;;;;;;0.30;0.30;;;;;;;6.70;71.75;95060.84;5042214;28;20626;-74
2024/01/27 09:23:09;;;;;;;0.40;0.40;;;;;;;6.67;72.10;95045.28;5050052;28;20226;-75
2024/01/27 09:25:35;;;;;;;0.20;0.20;;;;;;;6.73;72.40;95049.50;5046378;28;20210;-74
2024/01/27 09:28:03;;;;;;;0.20;0.20;;;;;;;6.84;71.57;95069.78;5040946;28;20200;-75
2024/01/27 09:30:30;;;;;;;0.40;0.40;;;;;;;6.79;71.73;95045.66;5036973;28;20254;-73
2024/01/27 09:32:56;;;;;;;3.40;2.58;;;;;;;6.69;71.81;95053.88;5038494;28;21189;-75
2024/01/27 09:35:24;;;;;;;0.30;0.30;;;;;;;7.13;71.76;95083.06;5032442;28;20200;-74
2024/01/27 09:37:51;;;;;;;0.30;0.30;;;;;;;7.14;71.51;95082.78;5033732;28;20615;-75
2024/01/27 09:40:18;;;;;;;1.33;0.82;;;;;;;7.11;70.96;95104.91;5042520;28;20211;-75
2024/01/27 09:42:53;;;;;;;0.30;0.30;;;;;;;7.31;69.65;95086.81;5052050;28;20224;-75
2024/01/27 09:45:21;;;;;;;0.20;0.20;;;;;;;7.44;70.41;95086.06;5032670;28;20200;-73
2024/01/27 09:47:48;;;;;;;0.30;0.30;;;;;;;7.24;69.65;95108.78;5032628;28;20295;-74
2024/01/27 09:50:18;;;;;;;0.20;0.20;;;;;;;7.54;69.60;95102.03;5032812;28;20197;-76
2024/01/27 09:52:49;;;;;;;0.30;0.30;;;;;;;7.30;70.50;95098.69;5034154;28;20266;-75
2024/01/27 09:55:16;;;;;;;0.20;0.20;;;;;;;6.94;70.98;95125.41;5032589;28;20254;-75
2024/01/27 09:57:45;;;;;;;0.20;0.20;;;;;;;6.79;71.35;95118.34;5033460;28;20223;-75
2024/01/27 10:00:13;;;;;;;0.30;0.30;;;;;;;6.60;71.98;95133.66;5029868;28;20208;-74
2024/01/27 10:02:41;;;;;;;0.20;0.20;;;;;;;6.78;71.87;95109.47;5030939;28;20250;-74
2024/01/27 10:05:10;;;;;;;0.32;0.32;;;;;;;6.83;72.70;95124.75;5030817;28;20240;-73
2024/01/27 10:07:35;;;;;;;0.30;0.30;;;;;;;6.87;72.27;95141.91;5033407;28;20208;-74
2024/01/27 10:10:06;;;;;;;0.30;0.30;;;;;;;7.06;71.74;95113.09;5032232;28;20230;-75
2024/01/27 10:12:37;;;;;;;0.20;0.20;;;;;;;6.98;71.25;95151.44;5030263;28;20315;-74
2024/01/27 10:15:07;;;;;;;0.20;0.20;;;;;;;6.94;71.98;95158.53;5031706;28;20211;-73
2024/01/27 10:17:37;;;;;;;0.28;0.28;;;;;;;6.79;71.82;95147.97;5033395;28;20649;-73
2024/01/27 10:20:07;;;;;;;0.20;0.20;;;;;;;6.40;73.40;95173.22;5030570;28;20200;-76
2024/01/27 10:22:41;;;;;;;0.30;0.30;;;;;;;6.22;74.72;95179.34;5031963;28;20673;-72
2024/01/27 10:25:10;;;;;;;0.25;0.25;;;;;;;6.22;73.86;95176.66;5031090;28;20204;-74
2024/01/27 10:27:37;;;;;;;0.30;0.30;;;;;;;6.04;74.36;95204.28;5031611;28;20239;-73
2024/01/27 10:30:05;;;;;;;0.20;0.20;;;;;;;6.00;74.40;95171.00;5033639;28;20211;-74
2024/01/27 10:32:32;;;;;;;0.30;0.30;;;;;;;5.97;74.67;95182.31;5031723;28;20224;-72
2024/01/27 10:35:04;;;;;;;0.20;0.20;;;;;;;6.01;75.22;95194.13;5033816;28;20262;-74
2024/01/27 10:37:30;;;;;;;1.00;0.73;;;;;;;5.92;75.91;95191.22;5030442;28;20307;-74
2024/01/27 10:40:02;;;;;;;0.20;0.20;;;;;;;5.99;74.83;95177.47;5031920;28;20567;-74
2024/01/27 10:42:31;;;;;;;0.20;0.20;;;;;;;6.02;75.19;95180.34;5030777;28;20533;-74
2024/01/27 10:45:00;;;;;;;0.85;0.50;;;;;;;6.10;75.04;95196.97;5034001;28;20567;-72
2024/01/27 10:47:29;;;;;;;0.20;0.20;;;;;;;6.17;75.00;95190.16;5029004;28;20355;-75
2024/01/27 10:49:57;;;;;;;0.20;0.20;;;;;;;6.10;74.75;95184.31;5031731;28;20263;-76
2024/01/27 10:52:28;;;;;;;2.08;0.50;;;;;;;6.07;75.08;95182.19;5027848;28;20654;-75
2024/01/27 10:54:59;;;;;;;0.22;0.22;;;;;;;6.27;74.51;95198.13;5033846;28;20208;-76
2024/01/27 10:57:27;;;;;;;0.47;0.47;;;;;;;6.12;75.23;95182.16;5027103;28;20935;-77
2024/01/27 10:59:57;;;;;;;0.20;0.20;;;;;;;6.20;75.13;95203.03;5035797;28;20204;-75
2024/01/27 11:02:24;;;;;;;0.20;0.20;;;;;;;6.37;74.72;95199.91;5033647;28;20540;-74
2024/01/27 11:04:53;;;;;;;0.47;0.47;;;;;;;6.04;75.81;95209.66;5026375;28;20223;-75
2024/01/27 11:07:21;;;;;;;0.20;0.20;;;;;;;5.90;76.34;95214.09;5039503;28;20195;-75
2024/01/27 11:09:51;;;;;;;0.50;0.45;;;;;;;5.83;76.45;95219.78;5046248;28;20566;-75
2024/01/27 11:12:19;;;;;;;0.30;0.30;;;;;;;5.72;77.31;95208.34;5046866;28;20662;-73
2024/01/27 11:14:46;;;;;;;0.30;0.30;;;;;;;5.66;77.68;95220.19;5036740;28;20200;-75
2024/01/27 11:17:15;;;;;;;0.38;0.38;;;;;;;5.75;77.39;95196.19;5041432;28;20199;-75
2024/01/27 11:19:42;;;;;;;0.30;0.30;;;;;;;5.65;77.54;95207.03;5039858;28;20654;-75
2024/01/27 11:22:09;;;;;;;0.40;0.40;;;;;;;5.66;77.87;95236.31;5033987;28;20252;-75
2024/01/27 11:24:36;;;;;;;0.35;0.35;;;;;;;5.50;77.87;95210.66;5034488;28;20529;-74
2024/01/27 11:27:04;;;;;;;0.20;0.20;;;;;;;5.78;77.94;95221.72;5035581;28;20208;-76
2024/01/27 11:29:32;;;;;;;0.30;0.30;;;;;;;5.57;78.36;95204.97;5034178;28;20356;-74
2024/01/27 11:32:01;;;;;;;0.32;0.32;;;;;;;5.69;78.40;95219.63;5035381;28;20204;-75
2024/01/27 11:34:30;;;;;;;0.30;0.30;;;;;;;5.47;79.24;95215.78;5037544;28;20251;-74
2024/01/27 11:36:57;;;;;;;0.38;0.38;;;;;;;5.31;79.87;95229.34;5038218;28;20200;-74
2024/01/27 11:39:28;;;;;;;0.50;0.50;;;;;;;5.46;78.81;95219.56;5033633;28;20212;-74
2024/01/27 11:42:05;;;;;;;0.40;0.40;;;;;;;5.46;79.47;95219.56;5035989;28;20224;-74